Time;durP1;ratioP1;P1;durP2;ratioP2;P2;SDS_P1;SDS_P2;PMS_P1;PMS_P2;Temp;Humidity;BMP_temperature;BMP_pressure;BME280_temperature;BME280_humidity;BME280_pressure;Samples;Min_cycle;Max_cycle;Signal;HPM_P1;HPM_P2
2023/01/15 00:01:03;;;;;;;13.35;1.98;;;6.00;99.90;;;;;;6272739;22;20356;-86
2023/01/15 00:03:30;;;;;;;10.40;1.80;;;6.00;99.90;;;;;;6274555;22;20022;-87
2023/01/15 00:05:56;;;;;;;9.98;1.58;;;6.40;99.90;;;;;;6274428;22;20599;-86
2023/01/15 00:08:22;;;;;;;10.60;1.73;;;6.00;99.90;;;;;;6247991;22;20018;-86
2023/01/15 00:10:47;;;;;;;16.15;1.90;;;6.00;99.90;;;;;;6274022;22;20026;-86
2023/01/15 00:13:13;;;;;;;12.52;2.47;;;6.00;99.90;;;;;;6272952;22;20153;-86
2023/01/15 00:15:39;;;;;;;15.32;2.50;;;6.20;99.90;;;;;;6248804;22;20015;-87
2023/01/15 00:18:04;;;;;;;18.85;2.45;;;6.00;99.90;;;;;;6299875;22;20016;-86
2023/01/15 00:20:30;;;;;;;15.85;2.08;;;6.00;99.90;;;;;;6273009;22;20073;-86
2023/01/15 00:22:56;;;;;;;12.73;1.88;;;6.00;99.90;;;;;;6274380;22;20495;-87
2023/01/15 00:28:05;;;;;;;18.50;2.50;;;6.90;99.90;;;;;;6266600;22;20452;-86
2023/01/15 00:30:31;;;;;;;15.48;1.98;;;6.10;99.90;;;;;;6268789;22;20027;-86
2023/01/15 00:32:58;;;;;;;15.90;2.13;;;6.10;99.90;;;;;;6243012;22;20027;-86
2023/01/15 00:35:24;;;;;;;18.05;4.15;;;6.90;99.90;;;;;;6242903;22;20455;-86
2023/01/15 00:37:50;;;;;;;14.25;2.22;;;6.50;99.90;;;;;;6268667;22;20108;-86
2023/01/15 00:40:18;;;;;;;15.30;2.00;;;6.40;99.90;;;;;;6243292;22;20018;-86
2023/01/15 00:42:44;;;;;;;10.25;1.63;;;6.10;99.90;;;;;;6242511;22;20090;-87
2023/01/15 00:45:11;;;;;;;16.67;2.80;;;6.10;99.90;;;;;;6242813;22;20337;-87
2023/01/15 00:47:38;;;;;;;12.20;2.00;;;6.10;99.90;;;;;;6269410;22;20023;-86
2023/01/15 00:50:07;;;;;;;15.30;2.92;;;6.10;99.90;;;;;;6242646;22;20098;-86
2023/01/15 00:52:32;;;;;;;15.38;3.10;;;6.10;99.90;;;;;;6269622;22;20750;-87
2023/01/15 00:54:58;;;;;;;15.63;2.15;;;6.30;99.90;;;;;;6242918;22;20016;-86
2023/01/15 00:57:24;;;;;;;17.92;2.50;;;6.60;99.90;;;;;;6267647;22;20051;-86
2023/01/15 00:59:49;;;;;;;13.73;2.05;;;6.10;99.90;;;;;;6268160;22;20064;-87
2023/01/15 01:02:15;;;;;;;14.70;1.95;;;6.80;99.90;;;;;;6269094;22;20057;-86
2023/01/15 01:04:41;;;;;;;21.27;2.38;;;6.10;99.90;;;;;;6243029;22;20018;-86
2023/01/15 01:07:07;;;;;;;15.93;2.00;;;6.40;99.90;;;;;;6243442;22;20024;-86
2023/01/15 01:09:34;;;;;;;15.23;2.20;;;6.60;99.90;;;;;;6267729;22;20027;-86
2023/01/15 01:11:59;;;;;;;12.07;2.20;;;6.00;99.90;;;;;;6268129;22;20425;-85
2023/01/15 01:14:25;;;;;;;18.27;2.33;;;6.90;99.90;;;;;;6242454;22;20025;-86
2023/01/15 01:16:51;;;;;;;19.17;2.42;;;6.00;99.90;;;;;;6267778;22;20030;-86
2023/01/15 01:19:20;;;;;;;13.43;2.10;;;6.10;99.90;;;;;;6243470;22;20298;-86
2023/01/15 01:21:47;;;;;;;13.40;2.38;;;6.00;99.90;;;;;;6242672;22;20020;-86
2023/01/15 01:24:16;;;;;;;15.15;2.30;;;6.30;99.90;;;;;;6242655;22;20008;-86
2023/01/15 01:26:44;;;;;;;11.68;1.90;;;5.90;99.90;;;;;;6243321;22;20118;-87
2023/01/15 01:29:12;;;;;;;19.27;2.60;;;6.00;99.90;;;;;;6273230;22;20378;-86
2023/01/15 01:31:38;;;;;;;17.50;2.05;;;6.00;99.90;;;;;;6272930;22;20030;-86
2023/01/15 01:34:04;;;;;;;17.55;1.95;;;6.00;99.90;;;;;;6273128;22;20440;-86
2023/01/15 01:36:33;;;;;;;18.17;2.60;;;6.80;99.90;;;;;;6248239;22;20097;-86
2023/01/15 01:38:59;;;;;;;12.10;2.28;;;6.60;99.90;;;;;;6272293;22;20015;-85
2023/01/15 01:41:27;;;;;;;22.30;3.35;;;6.00;99.90;;;;;;6248384;22;20347;-86
2023/01/15 01:43:57;;;;;;;15.95;2.30;;;6.00;99.90;;;;;;6272480;22;20022;-86
2023/01/15 01:46:24;;;;;;;18.52;2.55;;;6.00;99.90;;;;;;6273078;22;20072;-86
2023/01/15 01:48:53;;;;;;;17.30;2.50;;;6.00;99.90;;;;;;6273305;22;20015;-86
2023/01/15 01:51:22;;;;;;;20.45;2.85;;;6.00;99.90;;;;;;6273592;22;20015;-86
2023/01/15 01:53:48;;;;;;;15.60;2.58;;;6.40;99.90;;;;;;6271888;22;20015;-86
2023/01/15 01:56:16;;;;;;;21.02;2.47;;;6.20;99.90;;;;;;6274103;22;20018;-86
2023/01/15 01:58:46;;;;;;;12.25;1.92;;;5.90;99.90;;;;;;6246343;22;20027;-86
2023/01/15 02:01:12;;;;;;;13.70;2.00;;;5.90;99.90;;;;;;6274208;22;20060;-86
2023/01/15 02:03:39;;;;;;;16.80;2.75;;;5.90;99.90;;;;;;6273574;22;20716;-86
2023/01/15 02:06:08;;;;;;;15.30;1.98;;;5.90;99.90;;;;;;6272254;22;20015;-86
2023/01/15 02:08:38;;;;;;;14.48;1.98;;;5.80;99.90;;;;;;6273261;22;20045;-85
2023/01/15 02:11:05;;;;;;;15.70;3.08;;;6.50;99.90;;;;;;6273034;22;20019;-86
2023/01/15 02:13:33;;;;;;;18.42;2.40;;;5.90;99.90;;;;;;6245900;22;20436;-85
2023/01/15 02:16:04;;;;;;;11.82;2.00;;;5.90;99.90;;;;;;6273243;22;20038;-86
2023/01/15 02:18:42;;;;;;;13.00;2.45;;;6.00;99.90;;;;;;6248055;22;20031;-85
2023/01/15 02:21:32;;;;;;;17.40;2.72;;;5.90;99.90;;;;;;6272748;22;20011;-86
2023/01/15 02:24:07;;;;;;;18.55;2.78;;;5.90;99.90;;;;;;6273098;22;20023;-86
2023/01/15 02:27:12;;;;;;;15.38;2.75;;;5.80;99.90;;;;;;6273506;22;20540;-86
2023/01/15 02:29:41;;;;;;;17.77;2.63;;;5.80;99.90;;;;;;6241934;22;20019;-86
2023/01/15 02:32:12;;;;;;;25.02;3.25;;;6.00;99.90;;;;;;6242816;22;20020;-86
2023/01/15 02:34:45;;;;;;;26.10;2.85;;;5.90;99.90;;;;;;6267197;22;20096;-86
2023/01/15 02:37:15;;;;;;;;;;;5.80;99.90;;;;;;6243622;22;20026;-86
2023/01/15 02:39:44;;;;;;;16.88;2.33;;;5.80;99.90;;;;;;6242802;22;19943;-86
2023/01/15 02:42:11;;;;;;;20.95;2.78;;;6.20;99.90;;;;;;6241599;22;20028;-86
2023/01/15 02:44:42;;;;;;;22.98;3.28;;;5.80;99.90;;;;;;6242247;22;20144;-86
2023/01/15 02:47:10;;;;;;;14.50;2.22;;;5.80;99.90;;;;;;6242753;22;20051;-86
2023/01/15 02:49:37;;;;;;;12.55;1.95;;;5.90;99.90;;;;;;6242453;22;20087;-86
2023/01/15 02:52:09;;;;;;;20.85;2.42;;;5.80;99.90;;;;;;6241728;22;20016;-86
2023/01/15 02:54:41;;;;;;;15.80;2.35;;;6.10;99.90;;;;;;6242729;22;20027;-86
2023/01/15 02:57:10;;;;;;;17.98;2.80;;;5.40;99.90;;;;;;6240127;22;20011;-86
2023/01/15 02:59:44;;;;;;;13.07;1.73;;;5.80;99.90;;;;;;6267800;22;20094;-86
2023/01/15 03:02:15;;;;;;;12.40;2.10;;;5.80;99.90;;;;;;6241882;22;20352;-86
2023/01/15 03:04:47;;;;;;;12.05;1.67;;;5.90;99.90;;;;;;6242561;22;20012;-86
2023/01/15 03:07:22;;;;;;;14.50;2.85;;;5.90;99.90;;;;;;6242676;22;20016;-86
2023/01/15 03:09:49;;;;;;;14.75;2.30;;;5.80;99.90;;;;;;6240784;22;20069;-86
2023/01/15 03:13:01;;;;;;;20.70;2.42;;;5.80;99.90;;;;;;6242116;22;20020;-86
2023/01/15 03:18:20;;;;;;;19.70;2.63;;;5.80;99.90;;;;;;6241532;22;20051;-86
2023/01/15 03:20:50;;;;;;;23.60;2.97;;;5.90;99.90;;;;;;6242362;22;20106;-86
2023/01/15 03:23:18;;;;;;;17.92;2.97;;;5.90;99.90;;;;;;6241365;22;20043;-86
2023/01/15 03:25:47;;;;;;;24.17;2.90;;;5.90;99.90;;;;;;6242327;22;20436;-87
2023/01/15 03:28:16;;;;;;;16.42;2.97;;;5.90;99.90;;;;;;6256396;22;20027;-86
2023/01/15 03:30:42;;;;;;;15.05;2.22;;;6.50;99.90;;;;;;6267710;22;20471;-86
2023/01/15 03:33:10;;;;;;;18.95;2.60;;;5.90;99.90;;;;;;6243837;22;20016;-86
2023/01/15 03:35:43;;;;;;;18.35;2.45;;;5.90;99.90;;;;;;6269865;22;20056;-87
2023/01/15 03:38:12;;;;;;;13.73;2.10;;;5.90;99.90;;;;;;6243257;22;20012;-86
2023/01/15 03:40:45;;;;;;;25.92;3.35;;;5.90;99.90;;;;;;6269722;22;20019;-86
2023/01/15 03:46:04;;;;;;;16.52;2.28;;;5.80;99.90;;;;;;6268063;22;20385;-85
2023/01/15 03:48:40;;;;;;;19.55;2.65;;;5.90;99.90;;;;;;6269071;22;20074;-85
2023/01/15 03:51:12;;;;;;;16.20;2.45;;;5.70;99.90;;;;;;6268445;22;20065;-85
2023/01/15 03:53:47;;;;;;;16.05;3.08;;;5.70;99.90;;;;;;6269729;22;20023;-85
2023/01/15 03:56:13;;;;;;;18.95;2.78;;;5.70;99.90;;;;;;6244218;22;20047;-85
2023/01/15 03:58:44;;;;;;;20.38;3.67;;;6.00;99.90;;;;;;6267335;22;20098;-85
2023/01/15 04:01:15;;;;;;;18.10;2.70;;;5.70;99.90;;;;;;6244366;22;20026;-85
2023/01/15 04:03:42;;;;;;;14.10;2.47;;;5.90;99.90;;;;;;6244357;22;20059;-85
2023/01/15 04:06:09;;;;;;;15.10;2.97;;;5.70;99.90;;;;;;6268455;22;20019;-85
2023/01/15 04:08:38;;;;;;;17.23;2.05;;;5.70;99.90;;;;;;6269306;22;20023;-86
2023/01/15 04:11:04;;;;;;;15.07;2.40;;;5.70;99.90;;;;;;6268926;22;20020;-85
2023/01/15 04:13:30;;;;;;;15.82;3.38;;;5.60;99.90;;;;;;6242460;22;20038;-85
2023/01/15 04:15:56;;;;;;;17.67;1.95;;;6.20;99.90;;;;;;6268271;22;20020;-85
2023/01/15 04:18:22;;;;;;;19.27;2.28;;;6.20;99.90;;;;;;6269346;22;20023;-85
2023/01/15 04:20:48;;;;;;;16.27;2.08;;;6.60;99.90;;;;;;6267159;22;20015;-85
2023/01/15 04:23:14;;;;;;;10.45;1.77;;;5.70;99.90;;;;;;6269728;22;20016;-84
2023/01/15 04:25:40;;;;;;;21.85;2.92;;;6.40;99.90;;;;;;6269181;22;20015;-85
2023/01/15 04:28:07;;;;;;;19.52;2.85;;;6.30;99.90;;;;;;6241177;22;20115;-85
2023/01/15 04:30:34;;;;;;;13.50;2.55;;;6.10;99.90;;;;;;6268934;22;20024;-85
2023/01/15 04:33:00;;;;;;;20.58;2.67;;;5.60;99.90;;;;;;6242741;22;20391;-85
2023/01/15 04:35:26;;;;;;;16.13;2.38;;;5.60;99.90;;;;;;6268520;22;20091;-85
2023/01/15 04:37:57;;;;;;;17.23;2.78;;;6.00;99.90;;;;;;6268908;22;20069;-85
2023/01/15 04:45:55;;;;;;;16.70;2.47;;;6.00;99.90;;;;;;6267854;22;20115;-85
2023/01/15 04:48:20;;;;;;;14.35;2.80;;;6.10;99.90;;;;;;6242574;22;20440;-85
2023/01/15 04:50:46;;;;;;;19.77;2.33;;;5.70;99.90;;;;;;6268730;22;20440;-85
2023/01/15 04:53:12;;;;;;;22.40;2.70;;;5.40;99.90;;;;;;6243422;22;20023;-85
2023/01/15 04:55:38;;;;;;;19.77;2.75;;;6.30;99.90;;;;;;6242601;22;20016;-85
2023/01/15 04:58:03;;;;;;;22.02;2.55;;;5.30;99.90;;;;;;6242350;22;20520;-85
2023/01/15 05:00:29;;;;;;;10.85;1.85;;;5.30;99.90;;;;;;6268595;22;20107;-85
2023/01/15 05:02:55;;;;;;;15.60;2.80;;;5.90;99.90;;;;;;6242410;22;20011;-85
2023/01/15 05:05:21;;;;;;;20.58;2.40;;;5.70;99.90;;;;;;6268931;22;20459;-85
2023/01/15 05:07:46;;;;;;;18.40;2.28;;;5.30;99.90;;;;;;6268153;22;20063;-85
2023/01/15 05:10:12;;;;;;;13.30;2.13;;;5.30;99.90;;;;;;6243039;22;20408;-85
2023/01/15 05:12:38;;;;;;;20.85;3.22;;;5.50;99.90;;;;;;6268078;22;20023;-85
2023/01/15 05:15:05;;;;;;;14.82;2.25;;;5.30;99.90;;;;;;6242452;22;20024;-85
2023/01/15 05:17:34;;;;;;;20.35;3.00;;;5.30;99.90;;;;;;6268568;22;20024;-85
2023/01/15 05:20:00;;;;;;;19.33;2.47;;;6.20;99.90;;;;;;6268218;22;20012;-85
2023/01/15 05:22:26;;;;;;;14.10;2.20;;;5.20;99.90;;;;;;6268919;22;20425;-85
2023/01/15 05:24:51;;;;;;;22.27;2.45;;;5.40;99.90;;;;;;6266748;22;20018;-85
2023/01/15 05:27:19;;;;;;;15.45;2.90;;;6.20;99.90;;;;;;6268635;22;20031;-85
2023/01/15 05:29:46;;;;;;;12.73;2.58;;;5.10;99.90;;;;;;6266861;22;20061;-85
2023/01/15 05:32:12;;;;;;;18.40;2.55;;;5.40;99.90;;;;;;6243350;22;20015;-85
2023/01/15 05:34:38;;;;;;;16.65;2.40;;;5.10;99.90;;;;;;6268380;22;20451;-85
2023/01/15 05:37:03;;;;;;;17.30;2.63;;;5.90;99.90;;;;;;6266982;22;20476;-86
2023/01/15 05:39:29;;;;;;;13.27;2.25;;;5.10;99.90;;;;;;6268504;22;20444;-85
2023/01/15 05:41:55;;;;;;;19.05;2.40;;;5.10;99.90;;;;;;6241669;22;20015;-85
2023/01/15 05:44:26;;;;;;;17.73;2.47;;;5.50;99.90;;;;;;6267049;22;20015;-85
2023/01/15 05:46:54;;;;;;;17.00;3.22;;;5.60;99.90;;;;;;6267408;22;20090;-85
2023/01/15 05:49:23;;;;;;;14.55;2.28;;;5.20;99.90;;;;;;6243018;22;20019;-86
2023/01/15 05:51:50;;;;;;;16.90;2.53;;;5.00;99.90;;;;;;6240792;22;20015;-85
2023/01/15 05:54:19;;;;;;;19.42;2.22;;;5.20;99.90;;;;;;6242977;22;20043;-85
2023/01/15 05:56:45;;;;;;;14.95;2.80;;;4.90;99.90;;;;;;6241929;22;20063;-85
2023/01/15 05:59:13;;;;;;;14.35;2.63;;;5.80;99.90;;;;;;6241261;22;20047;-85
2023/01/15 06:01:39;;;;;;;16.83;2.20;;;5.40;99.90;;;;;;6268805;22;20023;-85
2023/01/15 06:04:05;;;;;;;20.92;3.47;;;4.90;99.90;;;;;;6267927;22;20023;-85
2023/01/15 06:06:32;;;;;;;15.98;2.45;;;5.70;99.90;;;;;;6242177;22;20372;-85
2023/01/15 06:08:58;;;;;;;13.07;2.40;;;4.90;99.90;;;;;;6241611;22;20321;-85
2023/01/15 06:11:24;;;;;;;12.93;1.88;;;4.90;99.90;;;;;;6243687;22;20019;-85
2023/01/15 06:13:50;;;;;;;17.10;2.40;;;4.50;99.90;;;;;;6265660;22;20021;-85
2023/01/15 06:16:17;;;;;;;20.05;2.45;;;4.90;99.90;;;;;;6243653;22;20016;-85
2023/01/15 06:18:43;;;;;;;19.80;2.40;;;5.60;99.90;;;;;;6268009;22;20499;-85
2023/01/15 06:21:11;;;;;;;13.10;1.92;;;4.90;99.90;;;;;;6267114;22;20058;-85
2023/01/15 06:23:37;;;;;;;17.00;2.30;;;4.90;99.90;;;;;;6242930;22;20027;-85
2023/01/15 06:26:07;;;;;;;7.70;1.60;;;4.90;99.90;;;;;;6241340;22;20024;-85
2023/01/15 06:28:33;;;;;;;13.88;1.73;;;4.90;99.90;;;;;;6247110;22;20382;-86
2023/01/15 06:30:59;;;;;;;13.05;2.40;;;6.00;99.90;;;;;;6247211;22;20030;-85
2023/01/15 06:33:25;;;;;;;14.35;2.72;;;5.70;99.90;;;;;;6272230;22;20015;-85
2023/01/15 06:35:51;;;;;;;15.20;1.90;;;4.90;99.90;;;;;;6272660;22;20064;-85
2023/01/15 06:38:17;;;;;;;18.45;2.35;;;4.80;99.90;;;;;;6273536;22;20026;-85
2023/01/15 06:40:45;;;;;;;16.40;2.20;;;4.80;99.90;;;;;;6271700;22;20015;-85
2023/01/15 06:48:47;;;;;;;20.13;2.78;;;4.80;99.90;;;;;;6271328;22;20129;-85
2023/01/15 06:51:17;;;;;;;17.85;2.83;;;5.00;99.90;;;;;;6273215;22;20015;-85
2023/01/15 06:53:43;;;;;;;13.98;2.15;;;4.30;99.90;;;;;;6272956;22;20089;-85
2023/01/15 06:56:09;;;;;;;17.17;2.20;;;4.70;99.90;;;;;;6246851;22;20366;-85
2023/01/15 06:58:37;;;;;;;17.20;2.20;;;5.90;99.90;;;;;;6247068;22;20054;-85
2023/01/15 07:01:07;;;;;;;10.73;1.63;;;4.70;99.90;;;;;;6272338;22;20034;-85
2023/01/15 07:03:33;;;;;;;17.42;2.35;;;4.80;99.90;;;;;;6273360;22;20312;-85
2023/01/15 07:05:59;;;;;;;23.92;2.72;;;4.80;99.90;;;;;;6274471;22;20160;-85
2023/01/15 07:08:26;;;;;;;14.90;2.38;;;5.80;99.90;;;;;;6273352;22;20084;-86
2023/01/15 07:10:51;;;;;;;18.33;2.47;;;4.90;99.90;;;;;;6274609;22;20077;-85
2023/01/15 07:13:17;;;;;;;15.25;2.25;;;6.00;99.90;;;;;;6274073;22;20401;-85
2023/01/15 07:15:43;;;;;;;20.42;2.72;;;5.80;99.90;;;;;;6272982;22;20329;-85
2023/01/15 07:18:11;;;;;;;13.57;2.38;;;4.80;99.90;;;;;;6275112;22;20015;-85
2023/01/15 07:20:37;;;;;;;13.93;2.53;;;5.60;99.90;;;;;;6275762;22;20051;-85
2023/01/15 07:23:03;;;;;;;13.32;2.03;;;5.10;99.90;;;;;;6273558;22;21023;-85
2023/01/15 07:25:29;;;;;;;15.57;2.22;;;4.80;99.90;;;;;;6274993;22;20015;-85
2023/01/15 07:27:54;;;;;;;12.82;2.70;;;4.80;99.90;;;;;;6274120;22;20026;-85
2023/01/15 07:30:20;;;;;;;12.48;1.85;;;5.00;99.90;;;;;;6273756;22;20022;-85
2023/01/15 07:32:46;;;;;;;12.80;2.08;;;5.50;99.90;;;;;;6273863;22;20019;-85
2023/01/15 07:35:12;;;;;;;20.60;2.83;;;5.20;99.90;;;;;;6274533;22;20017;-86
2023/01/15 07:37:42;;;;;;;13.35;2.25;;;4.80;99.90;;;;;;6273550;22;20338;-85
2023/01/15 07:40:11;;;;;;;12.85;1.88;;;4.80;99.90;;;;;;6249942;22;20053;-85
2023/01/15 07:54:10;;;;;;;16.13;2.05;;;4.70;99.90;;;;;;6281553;22;20110;-87
2023/01/15 07:56:39;;;;;;;10.80;1.70;;;4.60;99.90;;;;;;6250192;22;20105;-86
2023/01/15 07:59:26;;;;;;;13.65;1.98;;;4.70;99.90;;;;;;6274770;22;20093;-86
2023/01/15 08:01:52;;;;;;;10.23;1.83;;;4.60;99.90;;;;;;6248357;22;20023;-85
2023/01/15 08:04:23;;;;;;;13.18;1.77;;;4.70;99.90;;;;;;6249298;22;20038;-85
2023/01/15 08:07:11;;;;;;;18.38;2.85;;;4.70;99.90;;;;;;6248208;22;20072;-86
2023/01/15 08:09:45;;;;;;;17.77;2.03;;;4.70;99.90;;;;;;6267320;22;20015;-85
2023/01/15 08:15:12;;;;;;;14.27;1.63;;;4.80;99.90;;;;;;6272519;22;20046;-85
2023/01/15 08:17:41;;;;;;;12.48;2.08;;;4.80;99.90;;;;;;6248290;22;20069;-86
2023/01/15 08:20:11;;;;;;;8.05;1.98;;;5.60;99.90;;;;;;6273102;22;20050;-85
2023/01/15 08:22:40;;;;;;;11.80;2.42;;;4.90;99.90;;;;;;6274568;22;20060;-85
2023/01/15 08:25:30;;;;;;;11.40;2.00;;;4.90;99.90;;;;;;6274354;22;20027;-85
2023/01/15 08:28:04;;;;;;;13.40;1.83;;;5.00;99.90;;;;;;6283670;22;20039;-85
2023/01/15 08:30:36;;;;;;;18.27;3.55;;;4.90;99.90;;;;;;6274490;22;20262;-86
2023/01/15 08:33:08;;;;;;;13.07;2.13;;;5.10;99.90;;;;;;6247164;22;20033;-85
2023/01/15 08:35:34;;;;;;;15.23;2.03;;;4.80;99.90;;;;;;6274508;22;20053;-85
2023/01/15 08:38:04;;;;;;;12.85;2.08;;;5.00;99.90;;;;;;6248006;22;20015;-85
2023/01/15 08:48:53;;;;;;;9.82;1.88;;;4.70;99.90;;;;;;6205480;22;20094;-86
2023/01/15 08:52:03;;;;;;;15.80;2.50;;;4.80;99.90;;;;;;6284283;22;20023;-86
2023/01/15 08:57:51;;;;;;;10.02;1.88;;;5.00;99.90;;;;;;6246700;22;20508;-87
2023/01/15 09:00:17;;;;;;;16.00;2.28;;;5.00;99.90;;;;;;6299013;22;20105;-86
2023/01/15 09:02:43;;;;;;;15.27;2.65;;;5.00;99.90;;;;;;6297509;22;20020;-87
2023/01/15 09:05:09;;;;;;;16.48;2.20;;;5.10;99.90;;;;;;6274243;22;20418;-87
2023/01/15 09:07:38;;;;;;;16.98;2.65;;;5.10;99.90;;;;;;6248874;22;20061;-88
2023/01/15 09:10:08;;;;;;;15.43;2.30;;;4.70;99.90;;;;;;6250063;22;20022;-88
2023/01/15 09:12:34;;;;;;;15.93;2.40;;;4.50;99.90;;;;;;6299792;22;20015;-88
2023/01/15 09:15:08;;;;;;;10.68;1.95;;;4.10;99.90;;;;;;6246590;22;20518;-88
2023/01/15 09:18:00;;;;;;;14.18;2.05;;;4.30;99.90;;;;;;6314927;22;20023;-87
2023/01/15 09:20:29;;;;;;;13.52;2.47;;;4.30;99.90;;;;;;6299551;22;20023;-87
2023/01/15 09:22:55;;;;;;;13.90;1.65;;;4.30;99.90;;;;;;6246394;22;20076;-87
2023/01/15 09:25:31;;;;;;;21.25;2.50;;;4.40;99.90;;;;;;6249180;22;20089;-86
2023/01/15 09:27:57;;;;;;;13.20;1.83;;;4.10;99.90;;;;;;6295721;22;20340;-87
2023/01/15 09:30:23;;;;;;;18.23;2.97;;;4.60;99.90;;;;;;6272803;22;20562;-87
2023/01/15 09:32:49;;;;;;;14.77;2.38;;;5.10;99.90;;;;;;6273060;22;20336;-87
2023/01/15 09:35:39;;;;;;;19.92;2.45;;;4.80;99.90;;;;;;6301254;22;20326;-86
2023/01/15 09:39:17;;;;;;;15.18;2.17;;;4.80;99.90;;;;;;6272775;22;20516;-88
2023/01/15 09:42:42;;;;;;;18.48;2.75;;;4.80;99.90;;;;;;6245439;22;20037;-89
2023/01/15 09:45:55;;;;;;;18.45;1.90;;;5.00;99.90;;;;;;6277413;22;20030;-88
2023/01/15 09:48:32;;;;;;;18.08;2.58;;;4.40;99.90;;;;;;6212177;22;20124;-87
2023/01/15 09:51:28;;;;;;;16.50;3.10;;;5.10;99.90;;;;;;6298771;22;20373;-88
2023/01/15 09:54:29;;;;;;;18.65;2.55;;;4.80;99.90;;;;;;6274314;22;20026;-87
2023/01/15 09:57:14;;;;;;;14.57;2.35;;;4.70;99.90;;;;;;6298200;22;20027;-86
2023/01/15 10:00:00;;;;;;;12.48;1.95;;;6.20;99.90;;;;;;6275113;22;20025;-86
2023/01/15 10:02:36;;;;;;;13.68;2.10;;;5.70;99.90;;;;;;6274523;22;20015;-86
2023/01/15 10:05:14;;;;;;;15.30;1.75;;;5.00;99.90;;;;;;6298587;22;20065;-86
2023/01/15 10:07:57;;;;;;;19.15;2.00;;;5.50;99.90;;;;;;6298816;22;20026;-86
2023/01/15 10:10:28;;;;;;;14.93;2.20;;;5.60;99.90;;;;;;6300127;22;20019;-86
2023/01/15 10:13:20;;;;;;;14.18;2.42;;;5.80;99.90;;;;;;6297412;22;20015;-87
2023/01/15 10:16:26;;;;;;;;;;;;;;;;;;;;;
2023/01/15 10:19:31;;;;;;;14.73;2.88;;;5.90;99.90;;;;;;6272712;22;20104;-87
2023/01/15 10:23:00;;;;;;;17.67;2.42;;;6.10;99.90;;;;;;6168251;23;20421;-87
2023/01/15 10:25:55;;;;;;;14.35;1.95;;;6.10;99.90;;;;;;6123778;23;20064;-87
2023/01/15 10:28:31;;;;;;;14.90;1.85;;;6.20;99.90;;;;;;6264593;22;20024;-86
2023/01/15 10:31:28;;;;;;;11.30;2.42;;;6.10;99.90;;;;;;6242375;22;20420;-87
2023/01/15 10:35:02;;;;;;;11.45;1.65;;;6.10;99.90;;;;;;6267215;22;20059;-86
2023/01/15 10:45:53;;;;;;;9.80;1.65;;;6.70;99.90;;;;;;6125152;23;20076;-86
2023/01/15 10:48:43;;;;;;;20.25;2.40;;;6.70;99.90;;;;;;6139675;22;20016;-85
2023/01/15 10:51:17;;;;;;;10.52;1.75;;;6.70;99.90;;;;;;6271575;22;20025;-85
2023/01/15 10:54:13;;;;;;;12.82;3.22;;;6.70;99.90;;;;;;6270051;22;20321;-86
2023/01/15 10:56:49;;;;;;;15.07;2.33;;;6.40;99.90;;;;;;6245012;22;20020;-85
2023/01/15 11:04:30;;;;;;;;;;;;;;;;;;;;;
2023/01/15 11:08:14;;;;;;;15.00;1.95;;;6.70;99.90;;;;;;6268403;22;20432;-87
2023/01/15 11:29:42;;;;;;;14.27;1.85;;;7.30;99.90;;;;;;6220869;22;20505;-86
2023/01/15 11:32:43;;;;;;;14.50;2.25;;;7.30;99.90;;;;;;6235259;22;20059;-87
2023/01/15 11:35:21;;;;;;;19.30;3.03;;;7.20;99.90;;;;;;6244522;22;20015;-88
2023/01/15 11:38:10;;;;;;;26.08;3.67;;;7.20;99.90;;;;;;6244510;22;20039;-85
2023/01/15 11:41:08;;;;;;;45.78;4.68;;;7.10;99.90;;;;;;6266645;22;20023;-88
2023/01/15 11:50:42;;;;;;;20.30;3.50;;;7.00;99.90;;;;;;6214849;22;20341;-88
2023/01/15 11:53:17;;;;;;;20.38;3.28;;;6.90;99.90;;;;;;6246280;22;20297;-86
2023/01/15 11:56:12;;;;;;;21.95;3.22;;;7.10;99.90;;;;;;6245352;22;20529;-89
2023/01/15 11:59:09;;;;;;;20.63;3.83;;;6.90;99.90;;;;;;6243676;22;20030;-88
2023/01/15 12:01:41;;;;;;;17.10;2.83;;;6.80;99.90;;;;;;6271275;22;20094;-88
2023/01/15 12:04:28;;;;;;;12.75;2.08;;;6.80;99.90;;;;;;6243468;22;20053;-86
2023/01/15 12:18:30;;;;;;;19.27;2.85;;;6.50;99.90;;;;;;6190808;22;20415;-89
2023/01/15 12:21:15;;;;;;;16.00;2.65;;;6.50;99.90;;;;;;6244133;22;20020;-89
2023/01/15 12:24:30;;;;;;;17.55;2.78;;;6.50;99.90;;;;;;6244912;22;20026;-89
2023/01/15 12:27:14;;;;;;;19.40;2.65;;;6.40;99.90;;;;;;6242854;22;20030;-87
2023/01/15 12:59:37;;;;;;;;;;;;;;;;;;;;;
2023/01/15 13:37:55;;;;;;;4.47;0.70;;;4.80;99.90;;;;;;6238484;23;20074;-90
2023/01/15 13:52:26;;;;;;;15.85;1.40;;;5.10;99.90;;;;;;6239638;23;20023;-92
2023/01/15 13:55:00;;;;;;;10.07;1.52;;;4.40;99.90;;;;;;6187015;23;20066;-89
2023/01/15 13:57:33;;;;;;;;;;;5.20;99.90;;;;;;6187530;23;20015;-91
2023/01/15 14:00:03;;;;;;;10.77;1.40;;;4.80;99.90;;;;;;6188002;23;19946;-89
2023/01/15 14:02:37;;;;;;;7.70;1.27;;;5.10;99.90;;;;;;6189001;23;20112;-90
2023/01/15 14:05:22;;;;;;;7.47;0.60;;;5.10;99.90;;;;;;6212530;23;20020;-90
2023/01/15 14:07:48;;;;;;;4.72;0.80;;;5.50;99.90;;;;;;6188026;23;20022;-89
2023/01/15 14:10:18;;;;;;;6.63;0.98;;;4.20;99.90;;;;;;6212519;23;20087;-89
2023/01/15 14:12:48;;;;;;;7.65;0.82;;;4.80;99.90;;;;;;6186469;23;20016;-88
2023/01/15 14:15:32;;;;;;;8.00;1.33;;;5.60;99.90;;;;;;6187021;23;20023;-89
2023/01/15 14:18:37;;;;;;;;;;;;;;;;;;;;;
2023/01/15 14:21:36;;;;;;;9.00;1.27;;;5.10;99.90;;;;;;6212813;23;20024;-89
2023/01/15 14:24:28;;;;;;;10.23;1.55;;;5.20;99.90;;;;;;6187463;23;20026;-90
2023/01/15 14:27:43;;;;;;;15.65;1.92;;;5.20;99.90;;;;;;6174388;23;20354;-90
2023/01/15 14:31:14;;;;;;;8.32;1.83;;;5.20;99.90;;;;;;6126308;23;20020;-90
2023/01/15 14:38:24;;;;;;;12.35;1.85;;;5.00;99.90;;;;;;6150734;23;20465;-89
2023/01/15 15:28:39;;;;;;;22.50;2.35;;;5.70;99.90;;;;;;6120900;23;20013;-91
2023/01/15 16:37:23;;;;;;;18.98;2.50;;;5.20;99.90;;;;;;6024114;23;20030;-92
2023/01/15 16:58:48;;;;;;;9.18;1.65;;;4.60;99.90;;;;;;6211939;23;20015;-94
2023/01/15 17:02:29;;;;;;;13.48;1.70;;;5.00;99.90;;;;;;6209231;23;20015;-92
2023/01/15 17:20:43;;;;;;;;;;;4.50;99.90;;;;;;6119174;23;20080;-91
2023/01/15 17:27:20;;;;;;;11.73;1.65;;;4.40;99.90;;;;;;6004938;23;19969;-88
2023/01/15 17:30:30;;;;;;;;;;;;;;;;;;;;;
2023/01/15 17:33:02;;;;;;;15.77;2.37;;;4.60;99.90;;;;;;6094500;23;20097;-89
2023/01/15 17:36:12;;;;;;;10.55;1.90;;;4.30;99.90;;;;;;6118915;23;20057;-90
